createdAt,value
2016-09-02T00:02:03.614Z,17.1
2016-09-02T00:07:03.624Z,17.0
2016-09-02T00:12:03.696Z,17.0
2016-09-02T00:17:03.844Z,17.0
2016-09-02T00:22:03.663Z,17.1
2016-09-02T00:27:03.484Z,17.1
2016-09-02T00:32:03.416Z,17.0
2016-09-02T00:37:03.489Z,17.1
2016-09-02T00:42:03.314Z,17.1
2016-09-02T00:47:03.181Z,17.0
2016-09-02T00:52:03.529Z,17.0
2016-09-02T00:57:03.464Z,17.0
2016-09-02T01:02:03.422Z,17.0
2016-09-02T01:07:03.324Z,16.9
2016-09-02T01:12:03.516Z,16.9
2016-09-02T01:17:03.397Z,16.9
2016-09-02T01:22:03.274Z,16.9
2016-09-02T01:27:03.057Z,16.6
2016-09-02T01:32:03.720Z,16.5
2016-09-02T01:37:03.362Z,16.4
2016-09-02T01:42:02.908Z,16.4
2016-09-02T01:47:03.593Z,16.4
2016-09-02T01:52:03.306Z,16.4
2016-09-02T01:57:03.104Z,16.4
2016-09-02T02:02:03.787Z,16.3
2016-09-02T02:07:03.529Z,16.3
2016-09-02T02:12:03.071Z,16.2
2016-09-02T02:17:03.846Z,16.2
2016-09-02T02:22:03.627Z,16.2
2016-09-02T02:27:03.300Z,16.1
2016-09-02T02:32:03.778Z,16.0
2016-09-02T02:37:03.368Z,16.1
2016-09-02T02:42:03.419Z,16.1
2016-09-02T02:47:03.669Z,16.0
2016-09-02T02:52:03.767Z,15.9
2016-09-02T02:57:02.996Z,15.8
2016-09-02T03:02:03.305Z,15.7
2016-09-02T03:07:03.509Z,15.7
2016-09-02T03:12:03.835Z,15.7
2016-09-02T03:17:03.898Z,15.7
2016-09-02T03:22:03.315Z,15.6
2016-09-02T03:27:03.549Z,15.4
2016-09-02T03:32:03.729Z,15.3
2016-09-02T03:37:02.992Z,15.1
2016-09-02T03:42:03.032Z,15.0
2016-09-02T03:47:03.359Z,15.0
2016-09-02T03:52:03.532Z,15.0
2016-09-02T03:57:03.724Z,15.0
2016-09-02T04:02:03.222Z,15.0
2016-09-02T04:07:03.766Z,15.0
2016-09-02T04:12:03.474Z,15.0
2016-09-02T04:17:20.174Z,15.1
2016-09-02T04:22:03.720Z,15.0
2016-09-02T04:27:03.651Z,15.1
2016-09-02T04:32:16.790Z,15.0
2016-09-02T04:37:03.805Z,15.1
2016-09-02T04:42:03.764Z,15.1
2016-09-02T04:47:16.638Z,15.1
2016-09-02T04:52:03.688Z,15.0
2016-09-02T04:57:02.874Z,15.1
2016-09-02T05:02:16.854Z,15.2
2016-09-02T05:07:02.866Z,15.2
2016-09-02T05:12:03.386Z,15.3
2016-09-02T05:17:16.950Z,15.3
2016-09-02T05:22:03.386Z,15.2
2016-09-02T05:27:02.943Z,15.6
2016-09-02T05:32:17.221Z,15.6
2016-09-02T05:37:03.579Z,15.8
2016-09-02T05:42:02.970Z,15.8
2016-09-02T05:47:21.955Z,15.9
2016-09-02T05:52:03.414Z,16.0
2016-09-02T05:57:03.380Z,16.1
2016-09-02T06:02:17.470Z,16.2
2016-09-02T06:07:03.150Z,16.7
2016-09-02T06:12:03.318Z,17.0
2016-09-02T06:17:21.416Z,17.3
2016-09-02T06:22:03.210Z,17.3
2016-09-02T06:27:03.471Z,17.6
2016-09-02T06:32:17.120Z,17.9
2016-09-02T06:37:03.573Z,18.0
2016-09-02T06:42:03.377Z,18.3
2016-09-02T06:47:18.341Z,18.8
2016-09-02T06:52:03.367Z,18.8
2016-09-02T06:57:02.880Z,19.3
2016-09-02T07:02:18.210Z,19.6
2016-09-02T07:07:03.503Z,19.6
2016-09-02T07:12:03.901Z,19.9
2016-09-02T07:17:16.901Z,20.2
2016-09-02T07:22:02.952Z,20.8
2016-09-02T07:27:03.401Z,21.1
2016-09-02T07:32:27.553Z,21.0
2016-09-02T07:37:03.227Z,21.4
2016-09-02T07:42:03.396Z,21.8
2016-09-02T07:47:17.040Z,22.5
2016-09-02T07:52:03.262Z,22.4
2016-09-02T07:57:03.130Z,22.7
2016-09-02T08:02:18.418Z,23.1
2016-09-02T08:07:03.214Z,23.6
2016-09-02T08:12:03.698Z,23.6
2016-09-02T08:17:17.122Z,24.4
2016-09-02T08:22:02.991Z,24.4
2016-09-02T08:27:03.792Z,24.8
2016-09-02T08:32:16.855Z,25.4
2016-09-02T08:37:03.064Z,25.4
2016-09-02T08:42:03.782Z,26.1
2016-09-02T08:47:16.940Z,26.0
2016-09-02T08:52:03.452Z,26.4
2016-09-02T08:57:02.823Z,27.1
2016-09-02T09:02:17.387Z,27.4
2016-09-02T09:07:02.813Z,27.4
2016-09-02T09:12:03.179Z,27.7
2016-09-02T09:17:27.763Z,27.7
2016-09-02T09:22:03.803Z,27.9
2016-09-02T09:27:03.657Z,27.9
2016-09-02T09:32:17.267Z,28.3
2016-09-02T09:37:03.679Z,29.1
2016-09-02T09:42:03.269Z,29.3
2016-09-02T09:47:16.851Z,29.3
2016-09-02T09:52:03.501Z,29.4
2016-09-02T09:57:03.718Z,29.6
2016-09-02T10:02:18.172Z,30.4
2016-09-02T10:07:03.040Z,30.3
2016-09-02T10:12:03.246Z,30.8
2016-09-02T10:17:17.527Z,31.4
2016-09-02T10:22:03.071Z,31.4
2016-09-02T10:27:03.085Z,32.0
2016-09-02T10:32:18.127Z,32.1
2016-09-02T10:37:03.043Z,32.1
2016-09-02T10:42:03.309Z,31.9
2016-09-02T10:47:16.697Z,31.9
2016-09-02T10:52:02.776Z,32.0
2016-09-02T10:57:03.011Z,32.3
2016-09-02T11:02:17.640Z,32.7
2016-09-02T11:07:03.607Z,33.1
2016-09-02T11:12:03.675Z,33.1
2016-09-02T11:17:18.633Z,33.7
2016-09-02T11:22:03.016Z,33.7
2016-09-02T11:27:03.328Z,33.9
2016-09-02T11:32:16.812Z,34.1
2016-09-02T11:37:03.710Z,34.6
2016-09-02T11:42:03.538Z,35.0
2016-09-02T11:47:18.613Z,34.9
2016-09-02T11:52:03.015Z,34.8
2016-09-02T11:57:03.685Z,35.1
2016-09-02T12:02:16.848Z,35.0
2016-09-02T12:07:03.454Z,35.5
2016-09-02T12:12:03.457Z,35.6
2016-09-02T12:17:17.638Z,35.6
2016-09-02T12:22:03.263Z,36.2
2016-09-02T12:27:03.649Z,36.2
2016-09-02T12:32:18.047Z,35.7
2016-09-02T12:37:03.806Z,35.3
2016-09-02T12:42:03.088Z,35.3
2016-09-02T12:47:22.669Z,36.2
2016-09-02T12:52:03.345Z,36.2
2016-09-02T12:57:03.164Z,35.5
2016-09-02T13:02:16.644Z,35.5
2016-09-02T13:07:03.292Z,35.1
2016-09-02T13:12:03.200Z,35.1
2016-09-02T13:17:17.582Z,34.6
2016-09-02T13:22:02.967Z,35.1
2016-09-02T13:27:03.734Z,35.0
2016-09-02T13:32:14.886Z,34.8
2016-09-02T13:37:03.744Z,34.8
2016-09-02T13:42:03.579Z,34.5
2016-09-02T13:47:16.627Z,34.6
2016-09-02T13:52:03.590Z,34.6
2016-09-02T13:57:03.188Z,35.6
2016-09-02T20:02:04.189Z,21.8
2016-09-02T20:07:03.214Z,21.5
2016-09-02T20:12:03.037Z,21.5
2016-09-02T20:17:03.706Z,21.4
2016-09-02T20:22:03.179Z,21.3
2016-09-02T20:27:03.646Z,21.3
2016-09-02T20:32:03.663Z,21.1
2016-09-02T20:37:03.854Z,21.0
2016-09-02T20:42:03.385Z,21.0
2016-09-02T20:47:03.890Z,20.9
2016-09-02T20:52:03.434Z,20.9
2016-09-02T20:57:03.510Z,20.7
2016-09-02T21:02:03.120Z,20.5
2016-09-02T21:12:03.646Z,20.3
2016-09-02T21:17:03.435Z,20.0
2016-09-02T21:22:03.510Z,20.0
2016-09-02T21:27:03.327Z,19.8
2016-09-02T21:32:03.574Z,19.8
2016-09-02T21:37:03.712Z,19.9
2016-09-02T21:42:03.138Z,19.8
2016-09-02T21:47:03.620Z,19.8
2016-09-02T21:52:03.112Z,19.8
2016-09-02T21:57:03.134Z,19.7
2016-09-02T22:02:03.233Z,19.7
2016-09-02T22:07:03.757Z,19.5
2016-09-02T22:12:03.313Z,19.5
2016-09-02T22:22:04.029Z,19.6
2016-09-02T22:27:03.401Z,19.3
2016-09-02T22:32:03.907Z,19.3
2016-09-02T22:37:03.723Z,19.2
2016-09-02T22:42:03.570Z,19.3
2016-09-02T22:47:03.361Z,19.3
2016-09-02T22:52:02.959Z,19.3
2016-09-02T22:57:03.611Z,19.3
2016-09-02T23:02:06.602Z,19.3
2016-09-02T23:07:03.070Z,19.2
2016-09-02T23:12:03.647Z,19.1
2016-09-02T23:17:07.381Z,19.1
2016-09-02T23:22:03.326Z,19.0
2016-09-02T23:42:03.459Z,18.9
2016-09-02T23:47:03.451Z,19.0
2016-09-02T23:52:03.748Z,18.9
2016-09-02T23:57:03.599Z,18.9
